sensor_id;sensor_type;location;lat;lon;timestamp;P1;durP1;ratioP1;P2;durP2;ratioP2
54745;SDS011;40640;48.130;11.356;2023-05-01T00:02:35;4.82;;;3.90;;
54745;SDS011;40640;48.130;11.356;2023-05-01T00:06:38;5.60;;;3.70;;
54745;SDS011;40640;48.130;11.356;2023-05-01T00:10:41;6.05;;;3.70;;
54745;SDS011;40640;48.130;11.356;2023-05-01T00:14:44;4.60;;;3.60;;
54745;SDS011;40640;48.130;11.356;2023-05-01T00:18:48;8.32;;;3.65;;
54745;SDS011;40640;48.130;11.356;2023-05-01T00:22:51;6.97;;;4.05;;
54745;SDS011;40640;48.130;11.356;2023-05-01T00:26:54;5.30;;;3.85;;
54745;SDS011;40640;48.130;11.356;2023-05-01T00:30:57;9.60;;;4.63;;
54745;SDS011;40640;48.130;11.356;2023-05-01T00:35:01;6.78;;;4.72;;
54745;SDS011;40640;48.130;11.356;2023-05-01T00:39:04;6.55;;;4.82;;
54745;SDS011;40640;48.130;11.356;2023-05-01T00:43:07;9.00;;;5.47;;
54745;SDS011;40640;48.130;11.356;2023-05-01T00:47:11;10.52;;;5.15;;
54745;SDS011;40640;48.130;11.356;2023-05-01T00:51:16;9.30;;;5.38;;
54745;SDS011;40640;48.130;11.356;2023-05-01T00:55:20;7.60;;;5.15;;
54745;SDS011;40640;48.130;11.356;2023-05-01T00:59:23;6.13;;;5.38;;
54745;SDS011;40640;48.130;11.356;2023-05-01T01:03:26;8.07;;;5.50;;
54745;SDS011;40640;48.130;11.356;2023-05-01T01:07:34;6.50;;;5.18;;
54745;SDS011;40640;48.130;11.356;2023-05-01T01:11:43;6.65;;;4.72;;
54745;SDS011;40640;48.130;11.356;2023-05-01T01:15:52;8.88;;;5.28;;
54745;SDS011;40640;48.130;11.356;2023-05-01T01:24:40;7.53;;;5.13;;
54745;SDS011;40640;48.130;11.356;2023-05-01T01:29:03;8.40;;;5.35;;
54745;SDS011;40640;48.130;11.356;2023-05-01T01:33:44;8.70;;;5.55;;
54745;SDS011;40640;48.130;11.356;2023-05-01T01:37:54;10.13;;;5.78;;
54745;SDS011;40640;48.130;11.356;2023-05-01T01:42:02;8.00;;;5.78;;
54745;SDS011;40640;48.130;11.356;2023-05-01T01:46:08;8.63;;;5.97;;
54745;SDS011;40640;48.130;11.356;2023-05-01T01:50:14;9.15;;;5.47;;
54745;SDS011;40640;48.130;11.356;2023-05-01T01:54:20;10.40;;;5.65;;
54745;SDS011;40640;48.130;11.356;2023-05-01T01:58:27;7.57;;;5.10;;
54745;SDS011;40640;48.130;11.356;2023-05-01T02:02:32;20.02;;;5.95;;
54745;SDS011;40640;48.130;11.356;2023-05-01T02:06:37;6.40;;;5.10;;
54745;SDS011;40640;48.130;11.356;2023-05-01T02:10:41;7.45;;;5.82;;
54745;SDS011;40640;48.130;11.356;2023-05-01T02:14:47;9.45;;;5.72;;
54745;SDS011;40640;48.130;11.356;2023-05-01T02:18:51;11.40;;;5.60;;
54745;SDS011;40640;48.130;11.356;2023-05-01T02:22:58;8.50;;;5.28;;
54745;SDS011;40640;48.130;11.356;2023-05-01T02:27:02;12.18;;;5.75;;
54745;SDS011;40640;48.130;11.356;2023-05-01T02:31:18;7.30;;;5.50;;
54745;SDS011;40640;48.130;11.356;2023-05-01T02:35:22;7.45;;;5.40;;
54745;SDS011;40640;48.130;11.356;2023-05-01T02:39:26;10.15;;;5.53;;
54745;SDS011;40640;48.130;11.356;2023-05-01T02:43:29;7.60;;;6.05;;
54745;SDS011;40640;48.130;11.356;2023-05-01T02:47:35;8.40;;;6.25;;
54745;SDS011;40640;48.130;11.356;2023-05-01T02:51:40;7.70;;;5.88;;
54745;SDS011;40640;48.130;11.356;2023-05-01T02:55:47;7.57;;;5.70;;
54745;SDS011;40640;48.130;11.356;2023-05-01T02:59:50;7.53;;;5.82;;
54745;SDS011;40640;48.130;11.356;2023-05-01T03:03:53;8.57;;;6.05;;
54745;SDS011;40640;48.130;11.356;2023-05-01T03:07:56;8.65;;;6.15;;
54745;SDS011;40640;48.130;11.356;2023-05-01T03:12:01;7.35;;;5.80;;
54745;SDS011;40640;48.130;11.356;2023-05-01T03:16:04;8.07;;;6.05;;
54745;SDS011;40640;48.130;11.356;2023-05-01T03:20:08;9.75;;;6.85;;
54745;SDS011;40640;48.130;11.356;2023-05-01T03:24:11;8.48;;;6.32;;
54745;SDS011;40640;48.130;11.356;2023-05-01T03:28:15;9.55;;;6.13;;
54745;SDS011;40640;48.130;11.356;2023-05-01T03:32:18;10.82;;;6.13;;
54745;SDS011;40640;48.130;11.356;2023-05-01T03:36:23;11.40;;;6.00;;
54745;SDS011;40640;48.130;11.356;2023-05-01T03:40:27;12.93;;;7.07;;
54745;SDS011;40640;48.130;11.356;2023-05-01T03:44:49;8.52;;;6.15;;
54745;SDS011;40640;48.130;11.356;2023-05-01T03:48:52;8.18;;;6.25;;
54745;SDS011;40640;48.130;11.356;2023-05-01T03:52:55;9.40;;;6.47;;
54745;SDS011;40640;48.130;11.356;2023-05-01T03:56:58;10.73;;;6.35;;
54745;SDS011;40640;48.130;11.356;2023-05-01T04:01:03;11.15;;;5.85;;
54745;SDS011;40640;48.130;11.356;2023-05-01T04:05:11;8.15;;;5.88;;
54745;SDS011;40640;48.130;11.356;2023-05-01T04:09:19;9.52;;;6.50;;
54745;SDS011;40640;48.130;11.356;2023-05-01T04:13:22;10.77;;;5.55;;
54745;SDS011;40640;48.130;11.356;2023-05-01T04:17:26;13.57;;;6.13;;
54745;SDS011;40640;48.130;11.356;2023-05-01T04:21:29;14.10;;;6.55;;
54745;SDS011;40640;48.130;11.356;2023-05-01T04:25:33;9.20;;;6.32;;
54745;SDS011;40640;48.130;11.356;2023-05-01T04:29:41;8.13;;;5.50;;
54745;SDS011;40640;48.130;11.356;2023-05-01T04:33:46;8.23;;;5.65;;
54745;SDS011;40640;48.130;11.356;2023-05-01T04:37:49;11.95;;;5.97;;
54745;SDS011;40640;48.130;11.356;2023-05-01T04:41:52;7.68;;;5.50;;
54745;SDS011;40640;48.130;11.356;2023-05-01T04:45:55;9.77;;;6.22;;
54745;SDS011;40640;48.130;11.356;2023-05-01T04:49:59;9.32;;;5.65;;
54745;SDS011;40640;48.130;11.356;2023-05-01T04:54:04;7.78;;;5.43;;
54745;SDS011;40640;48.130;11.356;2023-05-01T04:58:11;8.15;;;6.05;;
54745;SDS011;40640;48.130;11.356;2023-05-01T05:02:14;9.52;;;6.47;;
54745;SDS011;40640;48.130;11.356;2023-05-01T05:06:18;8.32;;;5.70;;
54745;SDS011;40640;48.130;11.356;2023-05-01T05:10:21;7.18;;;5.88;;
54745;SDS011;40640;48.130;11.356;2023-05-01T05:18:41;7.43;;;5.20;;
54745;SDS011;40640;48.130;11.356;2023-05-01T05:22:45;8.43;;;5.70;;
54745;SDS011;40640;48.130;11.356;2023-05-01T05:26:56;9.30;;;5.88;;
54745;SDS011;40640;48.130;11.356;2023-05-01T05:30:59;8.63;;;5.28;;
54745;SDS011;40640;48.130;11.356;2023-05-01T05:35:03;7.97;;;5.45;;
54745;SDS011;40640;48.130;11.356;2023-05-01T05:39:08;7.45;;;6.57;;
54745;SDS011;40640;48.130;11.356;2023-05-01T05:43:12;6.93;;;5.47;;
54745;SDS011;40640;48.130;11.356;2023-05-01T05:47:15;8.30;;;5.85;;
54745;SDS011;40640;48.130;11.356;2023-05-01T05:51:17;8.38;;;6.15;;
54745;SDS011;40640;48.130;11.356;2023-05-01T05:55:22;8.57;;;5.78;;
54745;SDS011;40640;48.130;11.356;2023-05-01T05:59:36;7.35;;;6.05;;
54745;SDS011;40640;48.130;11.356;2023-05-01T06:03:39;7.85;;;6.35;;
54745;SDS011;40640;48.130;11.356;2023-05-01T06:07:42;7.60;;;5.65;;
54745;SDS011;40640;48.130;11.356;2023-05-01T06:11:46;10.30;;;5.93;;
54745;SDS011;40640;48.130;11.356;2023-05-01T06:15:50;8.68;;;6.30;;
54745;SDS011;40640;48.130;11.356;2023-05-01T06:19:53;8.73;;;5.78;;
54745;SDS011;40640;48.130;11.356;2023-05-01T06:23:57;9.52;;;7.10;;
54745;SDS011;40640;48.130;11.356;2023-05-01T06:28:05;9.45;;;5.80;;
54745;SDS011;40640;48.130;11.356;2023-05-01T06:32:09;8.93;;;5.90;;
54745;SDS011;40640;48.130;11.356;2023-05-01T06:36:12;8.38;;;5.85;;
54745;SDS011;40640;48.130;11.356;2023-05-01T06:40:17;11.80;;;6.25;;
54745;SDS011;40640;48.130;11.356;2023-05-01T06:44:22;9.32;;;6.03;;
54745;SDS011;40640;48.130;11.356;2023-05-01T06:48:24;8.65;;;6.13;;
54745;SDS011;40640;48.130;11.356;2023-05-01T06:52:27;7.60;;;6.32;;
54745;SDS011;40640;48.130;11.356;2023-05-01T06:56:30;8.50;;;6.20;;
54745;SDS011;40640;48.130;11.356;2023-05-01T07:00:35;6.63;;;5.40;;
54745;SDS011;40640;48.130;11.356;2023-05-01T07:04:38;8.38;;;6.00;;
54745;SDS011;40640;48.130;11.356;2023-05-01T07:08:42;5.65;;;4.90;;
54745;SDS011;40640;48.130;11.356;2023-05-01T07:12:45;7.35;;;5.47;;
54745;SDS011;40640;48.130;11.356;2023-05-01T07:16:49;8.38;;;5.75;;
54745;SDS011;40640;48.130;11.356;2023-05-01T07:20:52;10.38;;;5.78;;
54745;SDS011;40640;48.130;11.356;2023-05-01T07:24:55;8.43;;;6.10;;
54745;SDS011;40640;48.130;11.356;2023-05-01T07:28:57;6.85;;;5.57;;
54745;SDS011;40640;48.130;11.356;2023-05-01T07:33:02;9.02;;;5.70;;
54745;SDS011;40640;48.130;11.356;2023-05-01T07:37:06;6.70;;;5.05;;
54745;SDS011;40640;48.130;11.356;2023-05-01T07:41:09;8.82;;;5.20;;
54745;SDS011;40640;48.130;11.356;2023-05-01T07:45:11;7.43;;;5.35;;
54745;SDS011;40640;48.130;11.356;2023-05-01T07:49:16;7.68;;;5.22;;
54745;SDS011;40640;48.130;11.356;2023-05-01T07:53:18;8.57;;;5.40;;
54745;SDS011;40640;48.130;11.356;2023-05-01T07:57:22;9.10;;;5.40;;
54745;SDS011;40640;48.130;11.356;2023-05-01T08:01:25;7.25;;;5.03;;
54745;SDS011;40640;48.130;11.356;2023-05-01T08:05:32;6.43;;;5.55;;
54745;SDS011;40640;48.130;11.356;2023-05-01T08:09:35;6.60;;;4.55;;
54745;SDS011;40640;48.130;11.356;2023-05-01T08:13:38;8.75;;;5.30;;
54745;SDS011;40640;48.130;11.356;2023-05-01T08:17:41;7.93;;;5.20;;
54745;SDS011;40640;48.130;11.356;2023-05-01T08:21:45;6.00;;;5.03;;
54745;SDS011;40640;48.130;11.356;2023-05-01T08:25:49;8.18;;;5.55;;
54745;SDS011;40640;48.130;11.356;2023-05-01T08:29:53;19.38;;;6.22;;
54745;SDS011;40640;48.130;11.356;2023-05-01T08:33:56;8.65;;;5.80;;
54745;SDS011;40640;48.130;11.356;2023-05-01T08:38:00;11.70;;;6.38;;
54745;SDS011;40640;48.130;11.356;2023-05-01T08:42:03;7.07;;;6.00;;
54745;SDS011;40640;48.130;11.356;2023-05-01T08:46:06;7.03;;;5.80;;
54745;SDS011;40640;48.130;11.356;2023-05-01T08:50:11;9.50;;;6.13;;
54745;SDS011;40640;48.130;11.356;2023-05-01T08:54:17;10.18;;;6.90;;
54745;SDS011;40640;48.130;11.356;2023-05-01T08:58:22;9.13;;;6.93;;
54745;SDS011;40640;48.130;11.356;2023-05-01T09:02:27;10.05;;;6.88;;
54745;SDS011;40640;48.130;11.356;2023-05-01T09:06:30;12.18;;;7.18;;
54745;SDS011;40640;48.130;11.356;2023-05-01T09:10:36;9.10;;;6.95;;
54745;SDS011;40640;48.130;11.356;2023-05-01T09:14:42;13.40;;;8.23;;
54745;SDS011;40640;48.130;11.356;2023-05-01T09:18:45;10.88;;;7.78;;
54745;SDS011;40640;48.130;11.356;2023-05-01T09:22:49;12.82;;;8.48;;
54745;SDS011;40640;48.130;11.356;2023-05-01T09:26:53;11.00;;;8.02;;
54745;SDS011;40640;48.130;11.356;2023-05-01T09:30:57;15.15;;;8.57;;
54745;SDS011;40640;48.130;11.356;2023-05-01T09:35:10;13.38;;;9.35;;
54745;SDS011;40640;48.130;11.356;2023-05-01T09:39:14;11.60;;;9.02;;
54745;SDS011;40640;48.130;11.356;2023-05-01T09:43:25;13.48;;;9.90;;
54745;SDS011;40640;48.130;11.356;2023-05-01T09:47:29;17.37;;;10.77;;
54745;SDS011;40640;48.130;11.356;2023-05-01T09:51:34;14.90;;;10.18;;
54745;SDS011;40640;48.130;11.356;2023-05-01T09:55:37;16.85;;;11.35;;
54745;SDS011;40640;48.130;11.356;2023-05-01T09:59:41;152.57;;;63.13;;
54745;SDS011;40640;48.130;11.356;2023-05-01T10:03:44;85.05;;;41.88;;
54745;SDS011;40640;48.130;11.356;2023-05-01T10:07:54;29.55;;;17.48;;
54745;SDS011;40640;48.130;11.356;2023-05-01T10:11:59;53.83;;;23.60;;
54745;SDS011;40640;48.130;11.356;2023-05-01T10:16:03;25.10;;;13.07;;
54745;SDS011;40640;48.130;11.356;2023-05-01T10:20:10;30.35;;;19.23;;
54745;SDS011;40640;48.130;11.356;2023-05-01T10:24:15;22.73;;;14.13;;
54745;SDS011;40640;48.130;11.356;2023-05-01T10:28:19;17.13;;;12.27;;
54745;SDS011;40640;48.130;11.356;2023-05-01T10:32:24;18.52;;;13.23;;
54745;SDS011;40640;48.130;11.356;2023-05-01T10:36:29;23.02;;;15.68;;
54745;SDS011;40640;48.130;11.356;2023-05-01T10:40:45;15.13;;;11.23;;
54745;SDS011;40640;48.130;11.356;2023-05-01T10:44:49;17.48;;;12.25;;
54745;SDS011;40640;48.130;11.356;2023-05-01T10:48:54;16.98;;;11.55;;
54745;SDS011;40640;48.130;11.356;2023-05-01T10:53:15;12.40;;;10.15;;
54745;SDS011;40640;48.130;11.356;2023-05-01T10:57:39;15.43;;;10.93;;
54745;SDS011;40640;48.130;11.356;2023-05-01T11:01:44;14.77;;;11.27;;
54745;SDS011;40640;48.130;11.356;2023-05-01T11:06:05;12.90;;;10.52;;
54745;SDS011;40640;48.130;11.356;2023-05-01T11:10:23;16.80;;;11.07;;
54745;SDS011;40640;48.130;11.356;2023-05-01T11:14:27;16.35;;;10.82;;
54745;SDS011;40640;48.130;11.356;2023-05-01T11:18:50;15.13;;;11.57;;
54745;SDS011;40640;48.130;11.356;2023-05-01T11:22:55;13.35;;;10.80;;
54745;SDS011;40640;48.130;11.356;2023-05-01T11:26:58;13.45;;;11.00;;
54745;SDS011;40640;48.130;11.356;2023-05-01T11:31:01;13.68;;;10.98;;
54745;SDS011;40640;48.130;11.356;2023-05-01T11:35:04;10.90;;;9.73;;
54745;SDS011;40640;48.130;11.356;2023-05-01T11:39:12;15.15;;;10.45;;
54745;SDS011;40640;48.130;11.356;2023-05-01T11:43:17;13.85;;;10.60;;
54745;SDS011;40640;48.130;11.356;2023-05-01T11:47:20;12.40;;;9.55;;
54745;SDS011;40640;48.130;11.356;2023-05-01T11:51:23;12.05;;;9.55;;
54745;SDS011;40640;48.130;11.356;2023-05-01T11:55:30;11.27;;;9.70;;
54745;SDS011;40640;48.130;11.356;2023-05-01T11:59:34;17.67;;;11.93;;
54745;SDS011;40640;48.130;11.356;2023-05-01T12:03:40;13.75;;;9.75;;
54745;SDS011;40640;48.130;11.356;2023-05-01T12:11:48;16.10;;;10.63;;
54745;SDS011;40640;48.130;11.356;2023-05-01T12:15:53;14.90;;;10.55;;
54745;SDS011;40640;48.130;11.356;2023-05-01T12:19:57;14.35;;;10.20;;
54745;SDS011;40640;48.130;11.356;2023-05-01T12:24:06;10.77;;;9.45;;
54745;SDS011;40640;48.130;11.356;2023-05-01T12:28:11;12.88;;;10.07;;
54745;SDS011;40640;48.130;11.356;2023-05-01T12:32:15;13.73;;;11.30;;
54745;SDS011;40640;48.130;11.356;2023-05-01T12:36:18;15.05;;;12.32;;
54745;SDS011;40640;48.130;11.356;2023-05-01T12:40:25;11.48;;;9.80;;
54745;SDS011;40640;48.130;11.356;2023-05-01T12:44:30;16.70;;;11.13;;
54745;SDS011;40640;48.130;11.356;2023-05-01T12:48:33;13.65;;;9.95;;
54745;SDS011;40640;48.130;11.356;2023-05-01T12:52:40;11.23;;;8.63;;
54745;SDS011;40640;48.130;11.356;2023-05-01T12:56:43;10.63;;;8.85;;
54745;SDS011;40640;48.130;11.356;2023-05-01T13:00:48;13.60;;;8.60;;
54745;SDS011;40640;48.130;11.356;2023-05-01T13:04:52;11.73;;;8.10;;
54745;SDS011;40640;48.130;11.356;2023-05-01T13:09:07;8.45;;;6.95;;
54745;SDS011;40640;48.130;11.356;2023-05-01T13:13:10;9.23;;;7.38;;
54745;SDS011;40640;48.130;11.356;2023-05-01T13:17:21;8.73;;;7.35;;
54745;SDS011;40640;48.130;11.356;2023-05-01T13:21:25;11.20;;;8.55;;
54745;SDS011;40640;48.130;11.356;2023-05-01T13:25:28;8.48;;;7.20;;
54745;SDS011;40640;48.130;11.356;2023-05-01T13:29:31;10.68;;;8.38;;
54745;SDS011;40640;48.130;11.356;2023-05-01T13:33:36;10.45;;;8.55;;
54745;SDS011;40640;48.130;11.356;2023-05-01T13:37:40;11.05;;;8.95;;
54745;SDS011;40640;48.130;11.356;2023-05-01T13:41:43;8.38;;;7.47;;
54745;SDS011;40640;48.130;11.356;2023-05-01T13:45:46;7.93;;;7.13;;
54745;SDS011;40640;48.130;11.356;2023-05-01T13:49:50;11.15;;;7.32;;
54745;SDS011;40640;48.130;11.356;2023-05-01T13:53:54;8.10;;;7.30;;
54745;SDS011;40640;48.130;11.356;2023-05-01T13:57:57;8.05;;;7.10;;
54745;SDS011;40640;48.130;11.356;2023-05-01T14:02:03;11.67;;;7.17;;
54745;SDS011;40640;48.130;11.356;2023-05-01T14:06:21;10.15;;;7.18;;
54745;SDS011;40640;48.130;11.356;2023-05-01T14:10:26;9.30;;;7.18;;
54745;SDS011;40640;48.130;11.356;2023-05-01T14:14:29;11.75;;;7.55;;
54745;SDS011;40640;48.130;11.356;2023-05-01T14:18:32;12.73;;;7.53;;
54745;SDS011;40640;48.130;11.356;2023-05-01T14:22:40;13.70;;;6.68;;
54745;SDS011;40640;48.130;11.356;2023-05-01T14:26:46;12.18;;;6.63;;
54745;SDS011;40640;48.130;11.356;2023-05-01T14:30:49;7.32;;;6.20;;
54745;SDS011;40640;48.130;11.356;2023-05-01T14:34:54;8.70;;;5.90;;
54745;SDS011;40640;48.130;11.356;2023-05-01T14:39:01;6.43;;;5.78;;
54745;SDS011;40640;48.130;11.356;2023-05-01T14:43:06;9.05;;;5.32;;
54745;SDS011;40640;48.130;11.356;2023-05-01T14:47:08;11.27;;;6.22;;
54745;SDS011;40640;48.130;11.356;2023-05-01T14:51:22;7.95;;;5.63;;
54745;SDS011;40640;48.130;11.356;2023-05-01T14:55:27;8.52;;;6.07;;
54745;SDS011;40640;48.130;11.356;2023-05-01T14:59:31;7.82;;;5.93;;
54745;SDS011;40640;48.130;11.356;2023-05-01T15:03:34;8.32;;;5.80;;
54745;SDS011;40640;48.130;11.356;2023-05-01T15:07:41;5.90;;;5.30;;
54745;SDS011;40640;48.130;11.356;2023-05-01T15:11:46;11.88;;;5.50;;
54745;SDS011;40640;48.130;11.356;2023-05-01T15:15:48;6.57;;;5.53;;
54745;SDS011;40640;48.130;11.356;2023-05-01T15:19:51;6.55;;;4.97;;
54745;SDS011;40640;48.130;11.356;2023-05-01T15:23:54;6.57;;;4.95;;
54745;SDS011;40640;48.130;11.356;2023-05-01T15:27:58;11.82;;;4.70;;
54745;SDS011;40640;48.130;11.356;2023-05-01T15:32:01;4.68;;;3.50;;
54745;SDS011;40640;48.130;11.356;2023-05-01T15:36:13;4.93;;;3.72;;
54745;SDS011;40640;48.130;11.356;2023-05-01T15:40:16;5.88;;;4.53;;
54745;SDS011;40640;48.130;11.356;2023-05-01T15:44:21;5.45;;;4.43;;
54745;SDS011;40640;48.130;11.356;2023-05-01T15:48:23;7.35;;;5.43;;
54745;SDS011;40640;48.130;11.356;2023-05-01T15:52:27;7.72;;;5.55;;
54745;SDS011;40640;48.130;11.356;2023-05-01T15:56:32;7.30;;;5.55;;
54745;SDS011;40640;48.130;11.356;2023-05-01T16:00:36;11.23;;;6.63;;
54745;SDS011;40640;48.130;11.356;2023-05-01T16:04:40;8.00;;;6.82;;
54745;SDS011;40640;48.130;11.356;2023-05-01T16:08:42;14.25;;;8.40;;
54745;SDS011;40640;48.130;11.356;2023-05-01T16:12:45;14.07;;;9.73;;
54745;SDS011;40640;48.130;11.356;2023-05-01T16:16:52;10.85;;;8.68;;
54745;SDS011;40640;48.130;11.356;2023-05-01T16:20:55;11.27;;;8.88;;
54745;SDS011;40640;48.130;11.356;2023-05-01T16:24:58;17.17;;;9.00;;
54745;SDS011;40640;48.130;11.356;2023-05-01T16:29:03;13.20;;;8.75;;
54745;SDS011;40640;48.130;11.356;2023-05-01T16:33:09;12.20;;;8.75;;
54745;SDS011;40640;48.130;11.356;2023-05-01T16:37:19;17.90;;;10.60;;
54745;SDS011;40640;48.130;11.356;2023-05-01T16:41:23;15.30;;;8.90;;
54745;SDS011;40640;48.130;11.356;2023-05-01T16:45:26;19.40;;;10.95;;
54745;SDS011;40640;48.130;11.356;2023-05-01T16:49:30;14.13;;;10.15;;
54745;SDS011;40640;48.130;11.356;2023-05-01T16:53:33;15.32;;;10.63;;
54745;SDS011;40640;48.130;11.356;2023-05-01T16:57:36;16.42;;;11.27;;
54745;SDS011;40640;48.130;11.356;2023-05-01T17:01:42;16.20;;;10.63;;
54745;SDS011;40640;48.130;11.356;2023-05-01T17:05:46;17.60;;;10.70;;
54745;SDS011;40640;48.130;11.356;2023-05-01T17:09:49;15.45;;;10.82;;
54745;SDS011;40640;48.130;11.356;2023-05-01T17:13:51;15.85;;;10.40;;
54745;SDS011;40640;48.130;11.356;2023-05-01T17:17:54;15.52;;;10.23;;
54745;SDS011;40640;48.130;11.356;2023-05-01T17:21:58;16.55;;;10.57;;
54745;SDS011;40640;48.130;11.356;2023-05-01T17:26:01;15.40;;;10.32;;
54745;SDS011;40640;48.130;11.356;2023-05-01T17:30:06;17.17;;;11.63;;
54745;SDS011;40640;48.130;11.356;2023-05-01T17:34:09;19.48;;;11.57;;
54745;SDS011;40640;48.130;11.356;2023-05-01T17:38:13;16.50;;;9.98;;
54745;SDS011;40640;48.130;11.356;2023-05-01T17:42:17;32.90;;;19.20;;
54745;SDS011;40640;48.130;11.356;2023-05-01T17:46:20;16.23;;;11.35;;
54745;SDS011;40640;48.130;11.356;2023-05-01T17:50:23;19.42;;;12.10;;
54745;SDS011;40640;48.130;11.356;2023-05-01T17:54:27;19.67;;;12.43;;
54745;SDS011;40640;48.130;11.356;2023-05-01T17:58:30;18.75;;;12.60;;
54745;SDS011;40640;48.130;11.356;2023-05-01T18:02:33;15.93;;;12.23;;
54745;SDS011;40640;48.130;11.356;2023-05-01T18:06:36;18.38;;;12.50;;
54745;SDS011;40640;48.130;11.356;2023-05-01T18:10:41;14.40;;;9.70;;
54745;SDS011;40640;48.130;11.356;2023-05-01T18:14:43;9.77;;;7.28;;
54745;SDS011;40640;48.130;11.356;2023-05-01T18:18:46;9.65;;;6.55;;
54745;SDS011;40640;48.130;11.356;2023-05-01T18:22:49;7.68;;;6.10;;
54745;SDS011;40640;48.130;11.356;2023-05-01T18:26:54;8.57;;;5.85;;
54745;SDS011;40640;48.130;11.356;2023-05-01T18:30:57;7.20;;;4.97;;
54745;SDS011;40640;48.130;11.356;2023-05-01T18:35:00;10.02;;;5.63;;
54745;SDS011;40640;48.130;11.356;2023-05-01T18:39:04;5.40;;;4.72;;
54745;SDS011;40640;48.130;11.356;2023-05-01T18:43:08;11.38;;;5.30;;
54745;SDS011;40640;48.130;11.356;2023-05-01T18:47:12;7.70;;;6.03;;
54745;SDS011;40640;48.130;11.356;2023-05-01T18:51:15;7.38;;;4.72;;
54745;SDS011;40640;48.130;11.356;2023-05-01T18:55:18;7.65;;;5.10;;
54745;SDS011;40640;48.130;11.356;2023-05-01T18:59:22;9.20;;;5.20;;
54745;SDS011;40640;48.130;11.356;2023-05-01T19:07:29;5.70;;;4.18;;
54745;SDS011;40640;48.130;11.356;2023-05-01T19:11:32;6.60;;;4.15;;
54745;SDS011;40640;48.130;11.356;2023-05-01T19:15:36;4.65;;;3.53;;
54745;SDS011;40640;48.130;11.356;2023-05-01T19:19:39;4.85;;;3.60;;
54745;SDS011;40640;48.130;11.356;2023-05-01T19:23:42;7.15;;;5.20;;
54745;SDS011;40640;48.130;11.356;2023-05-01T19:27:45;7.85;;;5.38;;
54745;SDS011;40640;48.130;11.356;2023-05-01T19:31:49;11.88;;;6.22;;
54745;SDS011;40640;48.130;11.356;2023-05-01T19:35:52;6.00;;;3.78;;
54745;SDS011;40640;48.130;11.356;2023-05-01T19:39:55;6.18;;;4.10;;
54745;SDS011;40640;48.130;11.356;2023-05-01T19:43:58;9.00;;;4.07;;
54745;SDS011;40640;48.130;11.356;2023-05-01T19:48:02;6.65;;;4.28;;
54745;SDS011;40640;48.130;11.356;2023-05-01T19:52:06;7.88;;;5.32;;
54745;SDS011;40640;48.130;11.356;2023-05-01T19:56:09;3.75;;;3.28;;
54745;SDS011;40640;48.130;11.356;2023-05-01T20:00:12;6.78;;;4.63;;
54745;SDS011;40640;48.130;11.356;2023-05-01T20:04:17;5.13;;;3.47;;
54745;SDS011;40640;48.130;11.356;2023-05-01T20:08:19;5.65;;;4.40;;
54745;SDS011;40640;48.130;11.356;2023-05-01T20:12:22;6.65;;;4.30;;
54745;SDS011;40640;48.130;11.356;2023-05-01T20:16:25;5.80;;;3.92;;
54745;SDS011;40640;48.130;11.356;2023-05-01T20:20:30;4.80;;;3.47;;
54745;SDS011;40640;48.130;11.356;2023-05-01T20:24:35;4.75;;;3.58;;
54745;SDS011;40640;48.130;11.356;2023-05-01T20:28:38;4.45;;;3.10;;
54745;SDS011;40640;48.130;11.356;2023-05-01T20:32:40;3.10;;;2.60;;
54745;SDS011;40640;48.130;11.356;2023-05-01T20:36:46;2.78;;;2.50;;
54745;SDS011;40640;48.130;11.356;2023-05-01T20:40:49;3.42;;;2.90;;
54745;SDS011;40640;48.130;11.356;2023-05-01T20:44:51;7.20;;;3.70;;
54745;SDS011;40640;48.130;11.356;2023-05-01T20:48:54;5.93;;;3.50;;
54745;SDS011;40640;48.130;11.356;2023-05-01T20:52:58;6.05;;;4.68;;
54745;SDS011;40640;48.130;11.356;2023-05-01T20:57:01;5.63;;;4.00;;
54745;SDS011;40640;48.130;11.356;2023-05-01T21:01:04;3.58;;;3.13;;
54745;SDS011;40640;48.130;11.356;2023-05-01T21:05:12;8.25;;;4.10;;
54745;SDS011;40640;48.130;11.356;2023-05-01T21:09:17;4.78;;;3.50;;
54745;SDS011;40640;48.130;11.356;2023-05-01T21:13:20;5.47;;;3.80;;
54745;SDS011;40640;48.130;11.356;2023-05-01T21:17:25;3.97;;;3.30;;
54745;SDS011;40640;48.130;11.356;2023-05-01T21:21:27;4.80;;;3.97;;
54745;SDS011;40640;48.130;11.356;2023-05-01T21:25:32;3.78;;;3.13;;
54745;SDS011;40640;48.130;11.356;2023-05-01T21:29:35;5.70;;;3.92;;
54745;SDS011;40640;48.130;11.356;2023-05-01T21:33:40;5.97;;;3.85;;
54745;SDS011;40640;48.130;11.356;2023-05-01T21:37:45;4.90;;;3.85;;
54745;SDS011;40640;48.130;11.356;2023-05-01T21:41:50;5.53;;;4.07;;
54745;SDS011;40640;48.130;11.356;2023-05-01T21:45:53;6.85;;;4.53;;
54745;SDS011;40640;48.130;11.356;2023-05-01T21:49:56;4.32;;;3.45;;
54745;SDS011;40640;48.130;11.356;2023-05-01T21:54:00;5.18;;;3.80;;
54745;SDS011;40640;48.130;11.356;2023-05-01T21:58:04;4.40;;;3.85;;
54745;SDS011;40640;48.130;11.356;2023-05-01T22:02:07;4.80;;;3.55;;
54745;SDS011;40640;48.130;11.356;2023-05-01T22:06:11;5.78;;;4.20;;
54745;SDS011;40640;48.130;11.356;2023-05-01T22:10:15;5.68;;;4.07;;
54745;SDS011;40640;48.130;11.356;2023-05-01T22:14:20;10.93;;;3.65;;
54745;SDS011;40640;48.130;11.356;2023-05-01T22:18:23;4.32;;;3.53;;
54745;SDS011;40640;48.130;11.356;2023-05-01T22:22:26;3.80;;;3.40;;
54745;SDS011;40640;48.130;11.356;2023-05-01T22:26:28;4.18;;;3.47;;
54745;SDS011;40640;48.130;11.356;2023-05-01T22:30:33;7.68;;;3.78;;
54745;SDS011;40640;48.130;11.356;2023-05-01T22:34:37;4.40;;;3.28;;
54745;SDS011;40640;48.130;11.356;2023-05-01T22:38:40;4.97;;;3.30;;
54745;SDS011;40640;48.130;11.356;2023-05-01T22:42:42;6.00;;;3.30;;
54745;SDS011;40640;48.130;11.356;2023-05-01T22:46:46;4.47;;;3.70;;
54745;SDS011;40640;48.130;11.356;2023-05-01T22:50:50;3.83;;;3.40;;
54745;SDS011;40640;48.130;11.356;2023-05-01T22:54:53;6.80;;;3.53;;
54745;SDS011;40640;48.130;11.356;2023-05-01T22:58:56;4.15;;;3.33;;
54745;SDS011;40640;48.130;11.356;2023-05-01T23:03:00;5.57;;;3.97;;
54745;SDS011;40640;48.130;11.356;2023-05-01T23:07:04;4.53;;;3.65;;
54745;SDS011;40640;48.130;11.356;2023-05-01T23:11:09;4.15;;;3.75;;
54745;SDS011;40640;48.130;11.356;2023-05-01T23:15:12;5.20;;;3.60;;
54745;SDS011;40640;48.130;11.356;2023-05-01T23:19:20;5.28;;;3.78;;
54745;SDS011;40640;48.130;11.356;2023-05-01T23:23:24;6.30;;;4.60;;
54745;SDS011;40640;48.130;11.356;2023-05-01T23:27:32;4.80;;;4.10;;
54745;SDS011;40640;48.130;11.356;2023-05-01T23:31:35;5.15;;;3.97;;
54745;SDS011;40640;48.130;11.356;2023-05-01T23:35:46;5.55;;;4.35;;
54745;SDS011;40640;48.130;11.356;2023-05-01T23:39:49;8.70;;;5.20;;
54745;SDS011;40640;48.130;11.356;2023-05-01T23:43:53;6.45;;;3.95;;
54745;SDS011;40640;48.130;11.356;2023-05-01T23:47:57;9.38;;;4.53;;
54745;SDS011;40640;48.130;11.356;2023-05-01T23:52:02;7.25;;;3.95;;
54745;SDS011;40640;48.130;11.356;2023-05-01T23:56:06;6.45;;;4.07;;
